sensor_id;sensor_type;location;lat;lon;timestamp;P1;durP1;ratioP1;P2;durP2;ratioP2
12110;SDS011;6119;52.372;8.990;2022-07-23T00:00:15;6.57;;;5.10;;
12110;SDS011;6119;52.372;8.990;2022-07-23T00:03:04;5.97;;;4.57;;
12110;SDS011;6119;52.372;8.990;2022-07-23T00:05:50;6.13;;;4.90;;
12110;SDS011;6119;52.372;8.990;2022-07-23T00:08:37;8.03;;;4.80;;
12110;SDS011;6119;52.372;8.990;2022-07-23T00:11:23;5.87;;;4.60;;
12110;SDS011;6119;52.372;8.990;2022-07-23T00:14:10;4.97;;;4.50;;
12110;SDS011;6119;52.372;8.990;2022-07-23T00:16:56;7.07;;;4.47;;
12110;SDS011;6119;52.372;8.990;2022-07-23T00:19:45;5.87;;;4.37;;
12110;SDS011;6119;52.372;8.990;2022-07-23T00:22:31;7.83;;;4.63;;
12110;SDS011;6119;52.372;8.990;2022-07-23T00:25:18;6.43;;;4.43;;
12110;SDS011;6119;52.372;8.990;2022-07-23T00:28:14;4.90;;;4.20;;
12110;SDS011;6119;52.372;8.990;2022-07-23T00:31:00;8.00;;;4.67;;
12110;SDS011;6119;52.372;8.990;2022-07-23T00:33:47;7.10;;;5.33;;
12110;SDS011;6119;52.372;8.990;2022-07-23T00:36:35;6.10;;;5.00;;
12110;SDS011;6119;52.372;8.990;2022-07-23T00:39:21;5.77;;;4.47;;
12110;SDS011;6119;52.372;8.990;2022-07-23T00:42:08;12.30;;;4.53;;
12110;SDS011;6119;52.372;8.990;2022-07-23T00:44:55;6.73;;;4.40;;
12110;SDS011;6119;52.372;8.990;2022-07-23T00:47:41;7.20;;;4.90;;
12110;SDS011;6119;52.372;8.990;2022-07-23T00:50:27;7.33;;;4.50;;
12110;SDS011;6119;52.372;8.990;2022-07-23T00:53:16;7.20;;;4.77;;
12110;SDS011;6119;52.372;8.990;2022-07-23T00:56:03;5.67;;;4.70;;
12110;SDS011;6119;52.372;8.990;2022-07-23T00:58:50;7.37;;;5.07;;
12110;SDS011;6119;52.372;8.990;2022-07-23T01:01:36;9.17;;;5.33;;
12110;SDS011;6119;52.372;8.990;2022-07-23T01:04:24;9.57;;;5.40;;
12110;SDS011;6119;52.372;8.990;2022-07-23T01:07:11;6.10;;;4.33;;
12110;SDS011;6119;52.372;8.990;2022-07-23T01:09:59;5.80;;;4.80;;
12110;SDS011;6119;52.372;8.990;2022-07-23T01:12:47;8.57;;;4.57;;
12110;SDS011;6119;52.372;8.990;2022-07-23T01:15:34;7.70;;;4.97;;
12110;SDS011;6119;52.372;8.990;2022-07-23T01:18:22;7.97;;;5.10;;
12110;SDS011;6119;52.372;8.990;2022-07-23T01:21:08;7.10;;;5.10;;
12110;SDS011;6119;52.372;8.990;2022-07-23T01:24:00;8.50;;;4.97;;
12110;SDS011;6119;52.372;8.990;2022-07-23T01:26:47;7.10;;;4.83;;
12110;SDS011;6119;52.372;8.990;2022-07-23T01:29:35;5.67;;;4.87;;
12110;SDS011;6119;52.372;8.990;2022-07-23T01:32:21;7.63;;;5.27;;
12110;SDS011;6119;52.372;8.990;2022-07-23T01:35:08;10.13;;;5.27;;
12110;SDS011;6119;52.372;8.990;2022-07-23T01:37:55;7.93;;;5.50;;
12110;SDS011;6119;52.372;8.990;2022-07-23T01:40:43;9.30;;;5.67;;
12110;SDS011;6119;52.372;8.990;2022-07-23T01:43:31;8.90;;;5.97;;
12110;SDS011;6119;52.372;8.990;2022-07-23T01:46:17;8.13;;;5.37;;
12110;SDS011;6119;52.372;8.990;2022-07-23T01:49:04;7.43;;;5.40;;
12110;SDS011;6119;52.372;8.990;2022-07-23T01:51:51;8.50;;;5.47;;
12110;SDS011;6119;52.372;8.990;2022-07-23T01:54:46;11.33;;;5.73;;
12110;SDS011;6119;52.372;8.990;2022-07-23T01:57:34;7.43;;;5.67;;
12110;SDS011;6119;52.372;8.990;2022-07-23T02:00:20;6.73;;;6.03;;
12110;SDS011;6119;52.372;8.990;2022-07-23T02:03:07;9.23;;;5.20;;
12110;SDS011;6119;52.372;8.990;2022-07-23T02:05:54;8.17;;;5.60;;
12110;SDS011;6119;52.372;8.990;2022-07-23T02:08:41;5.90;;;5.30;;
12110;SDS011;6119;52.372;8.990;2022-07-23T02:11:27;7.17;;;5.60;;
12110;SDS011;6119;52.372;8.990;2022-07-23T02:14:15;9.23;;;6.03;;
12110;SDS011;6119;52.372;8.990;2022-07-23T02:17:02;9.57;;;5.53;;
12110;SDS011;6119;52.372;8.990;2022-07-23T02:19:48;8.03;;;6.00;;
12110;SDS011;6119;52.372;8.990;2022-07-23T02:22:35;9.67;;;6.07;;
12110;SDS011;6119;52.372;8.990;2022-07-23T02:25:21;8.40;;;5.97;;
12110;SDS011;6119;52.372;8.990;2022-07-23T02:28:08;8.90;;;6.17;;
12110;SDS011;6119;52.372;8.990;2022-07-23T02:30:56;8.13;;;6.10;;
12110;SDS011;6119;52.372;8.990;2022-07-23T02:33:42;8.10;;;6.20;;
12110;SDS011;6119;52.372;8.990;2022-07-23T02:36:29;8.23;;;5.93;;
12110;SDS011;6119;52.372;8.990;2022-07-23T02:39:15;10.87;;;6.53;;
12110;SDS011;6119;52.372;8.990;2022-07-23T02:42:02;12.63;;;6.00;;
12110;SDS011;6119;52.372;8.990;2022-07-23T02:44:49;11.03;;;6.23;;
12110;SDS011;6119;52.372;8.990;2022-07-23T02:47:37;7.53;;;6.03;;
12110;SDS011;6119;52.372;8.990;2022-07-23T02:50:23;12.80;;;6.50;;
12110;SDS011;6119;52.372;8.990;2022-07-23T02:53:10;12.70;;;6.47;;
12110;SDS011;6119;52.372;8.990;2022-07-23T02:55:56;11.60;;;6.47;;
12110;SDS011;6119;52.372;8.990;2022-07-23T02:58:43;9.60;;;6.67;;
12110;SDS011;6119;52.372;8.990;2022-07-23T03:01:29;8.07;;;6.67;;
12110;SDS011;6119;52.372;8.990;2022-07-23T03:04:17;10.47;;;6.33;;
12110;SDS011;6119;52.372;8.990;2022-07-23T03:07:03;10.10;;;7.07;;
12110;SDS011;6119;52.372;8.990;2022-07-23T03:09:50;12.33;;;7.53;;
12110;SDS011;6119;52.372;8.990;2022-07-23T03:12:36;13.90;;;7.30;;
12110;SDS011;6119;52.372;8.990;2022-07-23T03:15:23;12.43;;;7.37;;
12110;SDS011;6119;52.372;8.990;2022-07-23T03:18:09;11.83;;;7.00;;
12110;SDS011;6119;52.372;8.990;2022-07-23T03:20:57;10.53;;;6.73;;
12110;SDS011;6119;52.372;8.990;2022-07-23T03:23:44;10.60;;;7.03;;
12110;SDS011;6119;52.372;8.990;2022-07-23T03:26:30;13.47;;;7.30;;
12110;SDS011;6119;52.372;8.990;2022-07-23T03:29:17;11.80;;;7.27;;
12110;SDS011;6119;52.372;8.990;2022-07-23T03:32:03;9.47;;;6.50;;
12110;SDS011;6119;52.372;8.990;2022-07-23T03:34:50;12.83;;;7.37;;
12110;SDS011;6119;52.372;8.990;2022-07-23T03:37:39;10.33;;;7.17;;
12110;SDS011;6119;52.372;8.990;2022-07-23T03:40:25;10.03;;;6.63;;
12110;SDS011;6119;52.372;8.990;2022-07-23T03:43:12;8.73;;;6.13;;
12110;SDS011;6119;52.372;8.990;2022-07-23T03:45:58;12.60;;;6.83;;
12110;SDS011;6119;52.372;8.990;2022-07-23T03:48:44;9.23;;;6.23;;
12110;SDS011;6119;52.372;8.990;2022-07-23T03:51:31;7.27;;;6.30;;
12110;SDS011;6119;52.372;8.990;2022-07-23T03:54:19;8.90;;;7.07;;
12110;SDS011;6119;52.372;8.990;2022-07-23T03:57:06;8.47;;;6.73;;
12110;SDS011;6119;52.372;8.990;2022-07-23T03:59:52;10.27;;;7.20;;
12110;SDS011;6119;52.372;8.990;2022-07-23T04:02:39;14.30;;;7.50;;
12110;SDS011;6119;52.372;8.990;2022-07-23T04:05:26;11.07;;;7.37;;
12110;SDS011;6119;52.372;8.990;2022-07-23T04:08:12;10.47;;;7.07;;
12110;SDS011;6119;52.372;8.990;2022-07-23T04:11:00;10.40;;;7.27;;
12110;SDS011;6119;52.372;8.990;2022-07-23T04:13:47;11.60;;;7.30;;
12110;SDS011;6119;52.372;8.990;2022-07-23T04:16:33;10.77;;;7.87;;
12110;SDS011;6119;52.372;8.990;2022-07-23T04:19:20;10.73;;;7.70;;
12110;SDS011;6119;52.372;8.990;2022-07-23T04:22:07;11.20;;;8.30;;
12110;SDS011;6119;52.372;8.990;2022-07-23T04:24:53;10.07;;;7.13;;
12110;SDS011;6119;52.372;8.990;2022-07-23T04:27:41;12.77;;;7.43;;
12110;SDS011;6119;52.372;8.990;2022-07-23T04:30:28;13.20;;;7.50;;
12110;SDS011;6119;52.372;8.990;2022-07-23T04:33:14;11.20;;;8.07;;
12110;SDS011;6119;52.372;8.990;2022-07-23T04:36:01;7.13;;;6.13;;
12110;SDS011;6119;52.372;8.990;2022-07-23T04:38:47;8.10;;;6.97;;
12110;SDS011;6119;52.372;8.990;2022-07-23T04:41:36;10.40;;;7.90;;
12110;SDS011;6119;52.372;8.990;2022-07-23T04:44:24;10.60;;;7.93;;
12110;SDS011;6119;52.372;8.990;2022-07-23T04:47:11;14.37;;;8.77;;
12110;SDS011;6119;52.372;8.990;2022-07-23T04:49:57;14.57;;;7.13;;
12110;SDS011;6119;52.372;8.990;2022-07-23T04:52:43;10.50;;;7.70;;
12110;SDS011;6119;52.372;8.990;2022-07-23T04:55:30;11.30;;;7.77;;
12110;SDS011;6119;52.372;8.990;2022-07-23T04:58:16;10.37;;;7.80;;
12110;SDS011;6119;52.372;8.990;2022-07-23T05:01:04;16.10;;;8.63;;
12110;SDS011;6119;52.372;8.990;2022-07-23T05:03:51;11.87;;;8.40;;
12110;SDS011;6119;52.372;8.990;2022-07-23T05:06:37;12.57;;;8.60;;
12110;SDS011;6119;52.372;8.990;2022-07-23T05:09:23;14.07;;;8.10;;
12110;SDS011;6119;52.372;8.990;2022-07-23T05:12:10;13.77;;;8.47;;
12110;SDS011;6119;52.372;8.990;2022-07-23T05:14:56;9.87;;;8.20;;
12110;SDS011;6119;52.372;8.990;2022-07-23T05:17:44;11.80;;;8.20;;
12110;SDS011;6119;52.372;8.990;2022-07-23T05:20:30;10.70;;;7.90;;
12110;SDS011;6119;52.372;8.990;2022-07-23T05:23:17;10.60;;;8.30;;
12110;SDS011;6119;52.372;8.990;2022-07-23T05:26:03;12.67;;;8.87;;
12110;SDS011;6119;52.372;8.990;2022-07-23T05:28:50;10.93;;;8.10;;
12110;SDS011;6119;52.372;8.990;2022-07-23T05:31:36;9.60;;;7.83;;
12110;SDS011;6119;52.372;8.990;2022-07-23T05:34:24;11.70;;;7.53;;
12110;SDS011;6119;52.372;8.990;2022-07-23T05:37:11;9.90;;;8.00;;
12110;SDS011;6119;52.372;8.990;2022-07-23T05:39:59;13.03;;;8.93;;
12110;SDS011;6119;52.372;8.990;2022-07-23T05:42:46;13.03;;;8.40;;
12110;SDS011;6119;52.372;8.990;2022-07-23T05:45:33;13.23;;;8.10;;
12110;SDS011;6119;52.372;8.990;2022-07-23T05:48:19;10.60;;;7.70;;
12110;SDS011;6119;52.372;8.990;2022-07-23T05:51:08;14.97;;;7.70;;
12110;SDS011;6119;52.372;8.990;2022-07-23T05:53:55;12.23;;;8.10;;
12110;SDS011;6119;52.372;8.990;2022-07-23T05:56:41;8.73;;;7.43;;
12110;SDS011;6119;52.372;8.990;2022-07-23T05:59:28;12.13;;;7.93;;
12110;SDS011;6119;52.372;8.990;2022-07-23T06:02:14;10.83;;;7.63;;
12110;SDS011;6119;52.372;8.990;2022-07-23T06:05:01;9.93;;;7.93;;
12110;SDS011;6119;52.372;8.990;2022-07-23T06:07:49;9.73;;;7.37;;
12110;SDS011;6119;52.372;8.990;2022-07-23T06:10:35;11.30;;;7.40;;
12110;SDS011;6119;52.372;8.990;2022-07-23T06:13:22;9.13;;;5.87;;
12110;SDS011;6119;52.372;8.990;2022-07-23T06:16:08;10.67;;;6.03;;
12110;SDS011;6119;52.372;8.990;2022-07-23T06:18:55;10.17;;;6.70;;
12110;SDS011;6119;52.372;8.990;2022-07-23T06:21:42;9.83;;;5.27;;
12110;SDS011;6119;52.372;8.990;2022-07-23T06:24:32;7.57;;;4.97;;
12110;SDS011;6119;52.372;8.990;2022-07-23T06:27:19;7.07;;;4.67;;
12110;SDS011;6119;52.372;8.990;2022-07-23T06:30:11;9.13;;;5.23;;
12110;SDS011;6119;52.372;8.990;2022-07-23T06:33:02;7.00;;;6.30;;
12110;SDS011;6119;52.372;8.990;2022-07-23T06:35:49;10.47;;;6.10;;
12110;SDS011;6119;52.372;8.990;2022-07-23T06:38:35;9.70;;;5.40;;
12110;SDS011;6119;52.372;8.990;2022-07-23T06:41:23;10.27;;;5.67;;
12110;SDS011;6119;52.372;8.990;2022-07-23T06:44:10;8.00;;;5.90;;
12110;SDS011;6119;52.372;8.990;2022-07-23T06:46:57;9.93;;;5.20;;
12110;SDS011;6119;52.372;8.990;2022-07-23T06:49:43;7.30;;;4.77;;
12110;SDS011;6119;52.372;8.990;2022-07-23T06:52:30;6.97;;;4.27;;
12110;SDS011;6119;52.372;8.990;2022-07-23T06:55:16;6.03;;;3.87;;
12110;SDS011;6119;52.372;8.990;2022-07-23T06:58:04;8.00;;;4.93;;
12110;SDS011;6119;52.372;8.990;2022-07-23T07:00:50;6.93;;;4.73;;
12110;SDS011;6119;52.372;8.990;2022-07-23T07:03:37;6.73;;;3.77;;
12110;SDS011;6119;52.372;8.990;2022-07-23T07:06:23;6.77;;;4.10;;
12110;SDS011;6119;52.372;8.990;2022-07-23T07:09:10;5.93;;;3.63;;
12110;SDS011;6119;52.372;8.990;2022-07-23T07:11:56;5.73;;;4.10;;
12110;SDS011;6119;52.372;8.990;2022-07-23T07:14:44;7.00;;;3.70;;
12110;SDS011;6119;52.372;8.990;2022-07-23T07:17:30;8.07;;;4.50;;
12110;SDS011;6119;52.372;8.990;2022-07-23T07:20:17;5.40;;;4.23;;
12110;SDS011;6119;52.372;8.990;2022-07-23T07:23:03;7.47;;;4.13;;
12110;SDS011;6119;52.372;8.990;2022-07-23T07:25:50;8.00;;;3.67;;
12110;SDS011;6119;52.372;8.990;2022-07-23T07:28:36;6.50;;;3.80;;
12110;SDS011;6119;52.372;8.990;2022-07-23T07:31:24;7.07;;;3.30;;
12110;SDS011;6119;52.372;8.990;2022-07-23T07:34:10;6.00;;;3.87;;
12110;SDS011;6119;52.372;8.990;2022-07-23T07:36:57;5.30;;;3.83;;
12110;SDS011;6119;52.372;8.990;2022-07-23T07:39:43;5.43;;;3.77;;
12110;SDS011;6119;52.372;8.990;2022-07-23T07:42:30;6.57;;;4.10;;
12110;SDS011;6119;52.372;8.990;2022-07-23T07:45:17;7.70;;;4.33;;
12110;SDS011;6119;52.372;8.990;2022-07-23T07:48:07;8.40;;;3.90;;
12110;SDS011;6119;52.372;8.990;2022-07-23T07:50:53;7.53;;;4.03;;
12110;SDS011;6119;52.372;8.990;2022-07-23T07:53:40;5.63;;;4.10;;
12110;SDS011;6119;52.372;8.990;2022-07-23T07:56:29;7.03;;;4.07;;
12110;SDS011;6119;52.372;8.990;2022-07-23T07:59:17;6.43;;;3.70;;
12110;SDS011;6119;52.372;8.990;2022-07-23T08:02:04;8.90;;;3.50;;
12110;SDS011;6119;52.372;8.990;2022-07-23T08:04:52;5.67;;;3.47;;
12110;SDS011;6119;52.372;8.990;2022-07-23T08:07:39;3.77;;;3.40;;
12110;SDS011;6119;52.372;8.990;2022-07-23T08:10:26;5.83;;;3.90;;
12110;SDS011;6119;52.372;8.990;2022-07-23T08:13:13;6.43;;;3.87;;
12110;SDS011;6119;52.372;8.990;2022-07-23T08:16:01;6.30;;;3.67;;
12110;SDS011;6119;52.372;8.990;2022-07-23T08:18:52;9.03;;;3.30;;
12110;SDS011;6119;52.372;8.990;2022-07-23T08:21:40;5.13;;;3.07;;
12110;SDS011;6119;52.372;8.990;2022-07-23T08:24:26;5.90;;;3.17;;
12110;SDS011;6119;52.372;8.990;2022-07-23T08:27:12;4.97;;;3.60;;
12110;SDS011;6119;52.372;8.990;2022-07-23T08:29:59;4.13;;;3.17;;
12110;SDS011;6119;52.372;8.990;2022-07-23T08:32:50;3.93;;;3.20;;
12110;SDS011;6119;52.372;8.990;2022-07-23T08:35:39;4.63;;;2.73;;
12110;SDS011;6119;52.372;8.990;2022-07-23T08:38:28;8.53;;;3.60;;
12110;SDS011;6119;52.372;8.990;2022-07-23T08:41:14;5.27;;;2.63;;
12110;SDS011;6119;52.372;8.990;2022-07-23T08:44:02;4.20;;;2.50;;
12110;SDS011;6119;52.372;8.990;2022-07-23T08:46:49;3.70;;;2.30;;
12110;SDS011;6119;52.372;8.990;2022-07-23T08:49:36;4.47;;;2.60;;
12110;SDS011;6119;52.372;8.990;2022-07-23T08:52:23;5.87;;;2.80;;
12110;SDS011;6119;52.372;8.990;2022-07-23T08:55:12;2.87;;;2.17;;
12110;SDS011;6119;52.372;8.990;2022-07-23T08:58:00;2.67;;;2.00;;
12110;SDS011;6119;52.372;8.990;2022-07-23T09:00:47;2.27;;;1.97;;
12110;SDS011;6119;52.372;8.990;2022-07-23T09:03:35;3.30;;;2.07;;
12110;SDS011;6119;52.372;8.990;2022-07-23T09:06:23;3.43;;;1.67;;
12110;SDS011;6119;52.372;8.990;2022-07-23T09:09:16;3.27;;;2.00;;
12110;SDS011;6119;52.372;8.990;2022-07-23T09:12:05;3.30;;;1.90;;
12110;SDS011;6119;52.372;8.990;2022-07-23T09:14:53;1.80;;;1.70;;
12110;SDS011;6119;52.372;8.990;2022-07-23T09:17:41;3.27;;;2.00;;
12110;SDS011;6119;52.372;8.990;2022-07-23T09:20:28;2.43;;;2.00;;
12110;SDS011;6119;52.372;8.990;2022-07-23T09:23:15;5.77;;;2.30;;
12110;SDS011;6119;52.372;8.990;2022-07-23T09:26:02;4.40;;;1.83;;
12110;SDS011;6119;52.372;8.990;2022-07-23T09:28:57;3.60;;;1.80;;
12110;SDS011;6119;52.372;8.990;2022-07-23T09:31:47;2.77;;;1.60;;
12110;SDS011;6119;52.372;8.990;2022-07-23T09:34:35;3.20;;;1.77;;
12110;SDS011;6119;52.372;8.990;2022-07-23T09:37:24;2.73;;;1.77;;
12110;SDS011;6119;52.372;8.990;2022-07-23T09:40:11;4.87;;;1.67;;
12110;SDS011;6119;52.372;8.990;2022-07-23T09:43:01;2.40;;;1.60;;
12110;SDS011;6119;52.372;8.990;2022-07-23T09:45:49;2.27;;;1.50;;
12110;SDS011;6119;52.372;8.990;2022-07-23T09:48:36;2.53;;;1.40;;
12110;SDS011;6119;52.372;8.990;2022-07-23T09:51:23;2.10;;;1.40;;
12110;SDS011;6119;52.372;8.990;2022-07-23T09:54:21;2.07;;;1.70;;
12110;SDS011;6119;52.372;8.990;2022-07-23T09:57:13;2.43;;;1.23;;
12110;SDS011;6119;52.372;8.990;2022-07-23T10:00:00;2.40;;;1.60;;
12110;SDS011;6119;52.372;8.990;2022-07-23T10:02:50;2.03;;;1.37;;
12110;SDS011;6119;52.372;8.990;2022-07-23T10:05:38;1.87;;;1.60;;
12110;SDS011;6119;52.372;8.990;2022-07-23T10:08:28;2.03;;;1.60;;
12110;SDS011;6119;52.372;8.990;2022-07-23T10:11:17;2.90;;;1.50;;
12110;SDS011;6119;52.372;8.990;2022-07-23T10:14:04;1.63;;;1.13;;
12110;SDS011;6119;52.372;8.990;2022-07-23T10:16:51;3.23;;;1.50;;
12110;SDS011;6119;52.372;8.990;2022-07-23T10:19:39;1.77;;;1.57;;
12110;SDS011;6119;52.372;8.990;2022-07-23T10:22:27;2.17;;;1.33;;
12110;SDS011;6119;52.372;8.990;2022-07-23T10:25:18;3.07;;;1.33;;
12110;SDS011;6119;52.372;8.990;2022-07-23T10:28:29;2.37;;;1.40;;
12110;SDS011;6119;52.372;8.990;2022-07-23T10:31:31;1.37;;;1.27;;
12110;SDS011;6119;52.372;8.990;2022-07-23T10:34:47;2.13;;;1.80;;
12110;SDS011;6119;52.372;8.990;2022-07-23T10:37:39;2.60;;;1.50;;
12110;SDS011;6119;52.372;8.990;2022-07-23T10:40:29;1.47;;;1.20;;
12110;SDS011;6119;52.372;8.990;2022-07-23T10:43:17;3.50;;;1.43;;
12110;SDS011;6119;52.372;8.990;2022-07-23T10:46:22;2.43;;;1.63;;
12110;SDS011;6119;52.372;8.990;2022-07-23T10:52:24;2.13;;;1.57;;
12110;SDS011;6119;52.372;8.990;2022-07-23T10:55:38;3.30;;;1.50;;
12110;SDS011;6119;52.372;8.990;2022-07-23T11:01:32;1.40;;;1.20;;
12110;SDS011;6119;52.372;8.990;2022-07-23T11:04:20;1.80;;;1.23;;
12110;SDS011;6119;52.372;8.990;2022-07-23T11:07:36;3.00;;;1.30;;
12110;SDS011;6119;52.372;8.990;2022-07-23T11:10:44;1.20;;;1.10;;
12110;SDS011;6119;52.372;8.990;2022-07-23T11:13:40;1.10;;;1.00;;
12110;SDS011;6119;52.372;8.990;2022-07-23T11:16:38;2.77;;;1.03;;
12110;SDS011;6119;52.372;8.990;2022-07-23T11:19:42;1.37;;;1.20;;
12110;SDS011;6119;52.372;8.990;2022-07-23T11:23:08;1.50;;;1.30;;
12110;SDS011;6119;52.372;8.990;2022-07-23T11:25:55;2.53;;;1.07;;
12110;SDS011;6119;52.372;8.990;2022-07-23T11:28:42;1.73;;;1.30;;
12110;SDS011;6119;52.372;8.990;2022-07-23T11:31:28;1.00;;;1.00;;
12110;SDS011;6119;52.372;8.990;2022-07-23T11:34:26;1.20;;;1.10;;
12110;SDS011;6119;52.372;8.990;2022-07-23T11:37:27;2.00;;;1.10;;
12110;SDS011;6119;52.372;8.990;2022-07-23T11:40:17;2.47;;;1.30;;
12110;SDS011;6119;52.372;8.990;2022-07-23T11:43:04;2.17;;;1.03;;
12110;SDS011;6119;52.372;8.990;2022-07-23T11:45:53;1.27;;;1.10;;
12110;SDS011;6119;52.372;8.990;2022-07-23T11:48:43;1.83;;;1.33;;
12110;SDS011;6119;52.372;8.990;2022-07-23T11:51:30;1.53;;;1.20;;
12110;SDS011;6119;52.372;8.990;2022-07-23T11:54:18;1.10;;;1.00;;
12110;SDS011;6119;52.372;8.990;2022-07-23T11:57:05;1.33;;;1.20;;
12110;SDS011;6119;52.372;8.990;2022-07-23T11:59:52;0.93;;;0.93;;
12110;SDS011;6119;52.372;8.990;2022-07-23T12:02:41;0.90;;;0.90;;
12110;SDS011;6119;52.372;8.990;2022-07-23T12:05:30;4.50;;;1.00;;
12110;SDS011;6119;52.372;8.990;2022-07-23T12:08:18;1.30;;;1.10;;
12110;SDS011;6119;52.372;8.990;2022-07-23T12:11:06;2.90;;;1.43;;
12110;SDS011;6119;52.372;8.990;2022-07-23T12:13:55;1.47;;;1.00;;
12110;SDS011;6119;52.372;8.990;2022-07-23T12:16:43;1.70;;;1.17;;
12110;SDS011;6119;52.372;8.990;2022-07-23T12:19:29;3.23;;;1.10;;
12110;SDS011;6119;52.372;8.990;2022-07-23T12:22:16;1.83;;;1.27;;
12110;SDS011;6119;52.372;8.990;2022-07-23T12:25:03;0.90;;;0.90;;
12110;SDS011;6119;52.372;8.990;2022-07-23T12:28:01;1.80;;;1.20;;
12110;SDS011;6119;52.372;8.990;2022-07-23T12:30:49;3.20;;;1.07;;
12110;SDS011;6119;52.372;8.990;2022-07-23T12:33:38;1.37;;;1.13;;
12110;SDS011;6119;52.372;8.990;2022-07-23T12:36:35;0.97;;;0.90;;
12110;SDS011;6119;52.372;8.990;2022-07-23T12:39:30;1.90;;;1.10;;
12110;SDS011;6119;52.372;8.990;2022-07-23T12:42:17;2.33;;;1.20;;
12110;SDS011;6119;52.372;8.990;2022-07-23T12:45:06;1.10;;;1.10;;
12110;SDS011;6119;52.372;8.990;2022-07-23T12:47:57;3.20;;;1.13;;
12110;SDS011;6119;52.372;8.990;2022-07-23T12:50:52;3.50;;;1.17;;
12110;SDS011;6119;52.372;8.990;2022-07-23T12:53:41;1.10;;;1.00;;
12110;SDS011;6119;52.372;8.990;2022-07-23T12:56:29;3.43;;;1.13;;
12110;SDS011;6119;52.372;8.990;2022-07-23T12:59:17;1.23;;;1.10;;
12110;SDS011;6119;52.372;8.990;2022-07-23T13:02:05;1.20;;;1.10;;
12110;SDS011;6119;52.372;8.990;2022-07-23T13:04:57;0.90;;;0.90;;
12110;SDS011;6119;52.372;8.990;2022-07-23T13:07:45;1.43;;;1.23;;
12110;SDS011;6119;52.372;8.990;2022-07-23T13:10:32;0.87;;;0.87;;
12110;SDS011;6119;52.372;8.990;2022-07-23T13:13:22;1.23;;;1.00;;
12110;SDS011;6119;52.372;8.990;2022-07-23T13:16:14;2.47;;;1.00;;
12110;SDS011;6119;52.372;8.990;2022-07-23T13:19:02;1.63;;;1.20;;
12110;SDS011;6119;52.372;8.990;2022-07-23T13:21:49;1.33;;;1.17;;
12110;SDS011;6119;52.372;8.990;2022-07-23T13:24:36;2.27;;;1.30;;
12110;SDS011;6119;52.372;8.990;2022-07-23T13:27:23;2.67;;;1.33;;
12110;SDS011;6119;52.372;8.990;2022-07-23T13:30:10;1.07;;;1.07;;
12110;SDS011;6119;52.372;8.990;2022-07-23T13:32:57;2.00;;;1.33;;
12110;SDS011;6119;52.372;8.990;2022-07-23T13:35:46;1.17;;;1.07;;
12110;SDS011;6119;52.372;8.990;2022-07-23T13:38:33;1.23;;;0.93;;
12110;SDS011;6119;52.372;8.990;2022-07-23T13:41:20;3.17;;;1.17;;
12110;SDS011;6119;52.372;8.990;2022-07-23T13:44:09;1.53;;;0.97;;
12110;SDS011;6119;52.372;8.990;2022-07-23T13:46:56;3.53;;;1.00;;
12110;SDS011;6119;52.372;8.990;2022-07-23T13:49:43;1.23;;;1.10;;
12110;SDS011;6119;52.372;8.990;2022-07-23T13:52:33;3.20;;;1.00;;
12110;SDS011;6119;52.372;8.990;2022-07-23T13:55:21;1.20;;;1.10;;
12110;SDS011;6119;52.372;8.990;2022-07-23T13:58:11;1.43;;;1.00;;
12110;SDS011;6119;52.372;8.990;2022-07-23T14:00:57;0.90;;;0.90;;
12110;SDS011;6119;52.372;8.990;2022-07-23T14:03:44;1.50;;;0.80;;
12110;SDS011;6119;52.372;8.990;2022-07-23T14:06:31;1.73;;;1.20;;
12110;SDS011;6119;52.372;8.990;2022-07-23T14:09:19;1.23;;;1.00;;
12110;SDS011;6119;52.372;8.990;2022-07-23T14:12:06;1.00;;;0.90;;
12110;SDS011;6119;52.372;8.990;2022-07-23T14:14:55;1.43;;;1.00;;
12110;SDS011;6119;52.372;8.990;2022-07-23T14:17:42;2.80;;;1.00;;
12110;SDS011;6119;52.372;8.990;2022-07-23T14:20:30;1.07;;;1.00;;
12110;SDS011;6119;52.372;8.990;2022-07-23T14:23:17;3.03;;;1.00;;
12110;SDS011;6119;52.372;8.990;2022-07-23T14:26:05;3.10;;;1.10;;
12110;SDS011;6119;52.372;8.990;2022-07-23T14:28:52;0.90;;;0.90;;
12110;SDS011;6119;52.372;8.990;2022-07-23T14:31:38;0.90;;;0.90;;
12110;SDS011;6119;52.372;8.990;2022-07-23T14:34:25;1.80;;;1.10;;
12110;SDS011;6119;52.372;8.990;2022-07-23T14:37:12;1.43;;;0.90;;
12110;SDS011;6119;52.372;8.990;2022-07-23T14:39:59;2.80;;;1.07;;
12110;SDS011;6119;52.372;8.990;2022-07-23T14:42:49;1.90;;;1.10;;
12110;SDS011;6119;52.372;8.990;2022-07-23T14:45:36;2.10;;;1.20;;
12110;SDS011;6119;52.372;8.990;2022-07-23T14:48:22;6.43;;;1.20;;
12110;SDS011;6119;52.372;8.990;2022-07-23T14:51:09;1.47;;;1.00;;
12110;SDS011;6119;52.372;8.990;2022-07-23T14:53:56;1.47;;;1.00;;
12110;SDS011;6119;52.372;8.990;2022-07-23T14:56:42;1.80;;;0.90;;
12110;SDS011;6119;52.372;8.990;2022-07-23T14:59:31;3.03;;;1.00;;
12110;SDS011;6119;52.372;8.990;2022-07-23T15:02:18;1.47;;;1.30;;
12110;SDS011;6119;52.372;8.990;2022-07-23T15:05:05;2.37;;;1.00;;
12110;SDS011;6119;52.372;8.990;2022-07-23T15:07:52;0.83;;;0.83;;
12110;SDS011;6119;52.372;8.990;2022-07-23T15:10:39;3.27;;;1.17;;
12110;SDS011;6119;52.372;8.990;2022-07-23T15:13:25;4.40;;;1.10;;
12110;SDS011;6119;52.372;8.990;2022-07-23T15:16:13;1.30;;;1.13;;
12110;SDS011;6119;52.372;8.990;2022-07-23T15:19:01;2.20;;;1.10;;
12110;SDS011;6119;52.372;8.990;2022-07-23T15:21:51;1.20;;;1.10;;
12110;SDS011;6119;52.372;8.990;2022-07-23T15:24:37;3.43;;;0.90;;
12110;SDS011;6119;52.372;8.990;2022-07-23T15:27:24;1.83;;;1.00;;
12110;SDS011;6119;52.372;8.990;2022-07-23T15:30:11;1.10;;;1.03;;
12110;SDS011;6119;52.372;8.990;2022-07-23T15:32:59;1.10;;;1.10;;
12110;SDS011;6119;52.372;8.990;2022-07-23T15:35:45;1.77;;;1.20;;
12110;SDS011;6119;52.372;8.990;2022-07-23T15:38:32;1.60;;;1.10;;
12110;SDS011;6119;52.372;8.990;2022-07-23T15:41:19;1.30;;;1.20;;
12110;SDS011;6119;52.372;8.990;2022-07-23T15:44:08;1.97;;;1.10;;
12110;SDS011;6119;52.372;8.990;2022-07-23T15:47:15;1.37;;;1.00;;
12110;SDS011;6119;52.372;8.990;2022-07-23T15:50:05;1.87;;;1.00;;
12110;SDS011;6119;52.372;8.990;2022-07-23T15:52:52;1.10;;;1.00;;
12110;SDS011;6119;52.372;8.990;2022-07-23T15:55:39;1.03;;;0.90;;
12110;SDS011;6119;52.372;8.990;2022-07-23T15:58:30;2.50;;;1.20;;
12110;SDS011;6119;52.372;8.990;2022-07-23T16:01:17;1.63;;;1.10;;
12110;SDS011;6119;52.372;8.990;2022-07-23T16:04:04;0.90;;;0.90;;
12110;SDS011;6119;52.372;8.990;2022-07-23T16:06:53;2.00;;;1.20;;
12110;SDS011;6119;52.372;8.990;2022-07-23T16:09:41;2.87;;;1.00;;
12110;SDS011;6119;52.372;8.990;2022-07-23T16:12:28;2.70;;;1.10;;
12110;SDS011;6119;52.372;8.990;2022-07-23T16:15:14;1.00;;;1.00;;
12110;SDS011;6119;52.372;8.990;2022-07-23T16:18:01;0.97;;;0.97;;
12110;SDS011;6119;52.372;8.990;2022-07-23T16:20:48;2.77;;;0.87;;
12110;SDS011;6119;52.372;8.990;2022-07-23T16:23:36;1.20;;;1.10;;
12110;SDS011;6119;52.372;8.990;2022-07-23T16:26:23;1.83;;;1.00;;
12110;SDS011;6119;52.372;8.990;2022-07-23T16:29:09;1.03;;;1.00;;
12110;SDS011;6119;52.372;8.990;2022-07-23T16:32:04;1.83;;;1.10;;
12110;SDS011;6119;52.372;8.990;2022-07-23T16:34:51;1.67;;;1.57;;
12110;SDS011;6119;52.372;8.990;2022-07-23T16:37:37;1.33;;;1.20;;
12110;SDS011;6119;52.372;8.990;2022-07-23T16:40:26;1.50;;;1.40;;
12110;SDS011;6119;52.372;8.990;2022-07-23T16:43:13;1.60;;;1.17;;
12110;SDS011;6119;52.372;8.990;2022-07-23T16:45:59;1.20;;;1.10;;
12110;SDS011;6119;52.372;8.990;2022-07-23T16:48:47;1.33;;;1.23;;
12110;SDS011;6119;52.372;8.990;2022-07-23T16:51:34;1.60;;;1.20;;
12110;SDS011;6119;52.372;8.990;2022-07-23T16:54:21;2.03;;;1.60;;
12110;SDS011;6119;52.372;8.990;2022-07-23T16:57:10;1.37;;;1.27;;
12110;SDS011;6119;52.372;8.990;2022-07-23T16:59:56;1.17;;;1.07;;
12110;SDS011;6119;52.372;8.990;2022-07-23T17:02:43;0.90;;;0.90;;
12110;SDS011;6119;52.372;8.990;2022-07-23T17:05:29;1.13;;;1.10;;
12110;SDS011;6119;52.372;8.990;2022-07-23T17:08:16;3.03;;;1.07;;
12110;SDS011;6119;52.372;8.990;2022-07-23T17:11:03;1.63;;;1.17;;